Time;durP1;ratioP1;P1;durP2;ratioP2;P2;SDS_P1;SDS_P2;PMS_P1;PMS_P2;Temp;Humidity;BMP_temperature;BMP_pressure;BME280_temperature;BME280_humidity;BME280_pressure;Samples;Min_cycle;Max_cycle;Signal;HPM_P1;HPM_P2
2022/12/21 07:45:19;;;;;;;;;5.25;5.25;;;;;17.80;44.61;101087.91;5122082;27;45398;-69
2022/12/21 07:47:44;;;;;;;;;4.50;4.50;;;;;18.17;45.31;101089.47;5111590;27;46548;-69
2022/12/21 07:50:09;;;;;;;;;5.50;4.00;;;;;18.77;45.50;101091.78;5111063;27;46615;-68
2022/12/21 07:52:35;;;;;;;;;4.75;3.25;;;;;19.43;45.21;101086.31;5109425;27;45863;-71
2022/12/21 07:55:01;;;;;;;;;3.50;3.50;;;;;20.07;45.38;101091.63;5111367;27;46966;-69
2022/12/21 07:57:26;;;;;;;;;4.25;3.00;;;;;20.57;44.86;101079.09;5110419;27;45925;-69
2022/12/21 07:59:51;;;;;;;;;2.25;2.25;;;;;21.12;44.95;101085.75;5104593;27;45883;-70
2022/12/21 08:02:17;;;;;;;;;3.00;3.00;;;;;21.63;44.12;101099.88;5102189;27;45903;-69
2022/12/21 08:04:42;;;;;;;;;4.75;3.25;;;;;22.01;44.07;101102.59;5110179;27;46101;-73
2022/12/21 08:07:08;;;;;;;;;3.00;3.00;;;;;22.41;44.00;101091.56;5097580;27;45521;-69
2022/12/21 08:09:34;;;;;;;;;2.00;2.00;;;;;22.64;43.28;101090.16;5108289;27;45620;-69
2022/12/21 08:12:00;;;;;;;;;4.00;4.00;;;;;22.92;43.59;101099.19;5101029;27;45403;-73
2022/12/21 08:14:25;;;;;;;;;3.00;3.00;;;;;23.17;43.28;101101.09;5105274;27;46737;-70
2022/12/21 08:16:50;;;;;;;;;3.50;3.50;;;;;23.36;43.07;101104.63;5111356;27;47065;-71
2022/12/21 08:19:16;;;;;;;;;3.67;3.67;;;;;23.53;42.92;101094.75;5111308;27;45546;-72
2022/12/21 08:21:41;;;;;;;;;3.33;2.00;;;;;23.69;42.32;101098.56;5111226;27;45395;-72
2022/12/21 08:24:07;;;;;;;;;2.67;2.67;;;;;23.87;42.35;101111.19;5111331;27;45771;-72
2022/12/21 08:26:33;;;;;;;;;3.67;2.00;;;;;24.01;42.35;101115.16;5110139;27;45426;-71
2022/12/21 08:29:05;;;;;;;;;4.00;4.00;;;;;24.12;41.97;101116.75;5111247;27;45861;-70
2022/12/21 08:31:53;;;;;;;;;2.33;2.33;;;;;24.19;41.75;101110.50;5131979;27;45565;-71
2022/12/21 08:34:19;;;;;;;;;3.33;3.33;;;;;24.31;41.75;101113.78;5112151;27;46141;-71
2022/12/21 08:36:44;;;;;;;;;2.33;2.33;;;;;24.40;41.69;101108.38;5110853;27;45465;-69
2022/12/21 08:39:10;;;;;;;;;4.33;3.00;;;;;24.51;41.55;101110.75;5105868;27;45490;-73
2022/12/21 08:41:36;;;;;;;;;5.33;4.00;;;;;24.54;41.24;101096.00;5098708;27;49115;-71
2022/12/21 08:44:01;;;;;;;;;3.00;3.00;;;;;24.71;40.59;101092.31;5109199;27;47056;-71
2022/12/21 08:46:27;;;;;;;;;3.00;3.00;;;;;24.79;40.79;101094.19;5121936;27;45844;-72
2022/12/21 08:48:53;;;;;;;;;3.00;3.00;;;;;24.89;40.53;101098.63;5118919;27;46209;-73
2022/12/21 08:51:18;;;;;;;;;2.67;2.67;;;;;25.03;40.04;101102.53;5106417;27;45581;-73
2022/12/21 08:53:43;;;;;;;;;2.00;2.00;;;;;25.17;40.37;101117.31;5098254;27;46138;-75
2022/12/21 08:56:09;;;;;;;;;3.00;3.00;;;;;25.26;39.29;101106.25;5102749;27;45666;-76
2022/12/21 08:58:34;;;;;;;;;3.00;1.00;;;;;25.30;39.58;101098.59;5089802;27;45428;-75
2022/12/21 09:01:00;;;;;;;;;3.00;1.67;;;;;25.38;39.23;101098.59;5098211;27;45335;-75
2022/12/21 09:03:26;;;;;;;;;1.00;1.00;;;;;25.45;39.17;101095.19;5095051;27;46558;-74
2022/12/21 09:05:57;;;;;;;;;2.00;2.00;;;;;25.46;39.14;101086.84;5111752;27;45618;-79
2022/12/21 09:08:23;;;;;;;;;1.00;1.00;;;;;25.52;39.12;101094.34;5096784;27;45480;-75
2022/12/21 09:10:49;;;;;;;;;1.67;1.67;;;;;25.57;38.59;101093.84;5095178;27;45421;-72
2022/12/21 09:13:14;;;;;;;;;2.00;2.00;;;;;25.62;38.38;101096.88;5092927;27;45552;-73
2022/12/21 09:15:44;;;;;;;;;1.33;1.33;;;;;25.70;38.52;101089.72;5091333;27;45464;-76
2022/12/21 09:18:10;;;;;;;;;1.00;1.00;;;;;25.75;38.42;101092.78;5093571;27;45451;-74
2022/12/21 09:20:36;;;;;;;;;3.67;2.00;;;;;25.82;38.50;101091.03;5088646;27;45405;-72
2022/12/21 09:23:01;;;;;;;;;2.33;2.33;;;;;25.89;37.92;101097.47;5095549;27;45504;-71
2022/12/21 09:25:27;;;;;;;;;2.33;2.00;;;;;25.94;37.51;101102.38;5093280;27;45398;-72
2022/12/21 09:27:52;;;;;;;;;5.00;2.00;;;;;25.95;37.30;101106.78;5085237;27;45477;-73
2022/12/21 09:30:18;;;;;;;;;1.33;1.33;;;;;25.91;36.96;101097.28;5099575;27;45308;-75
2022/12/21 09:32:43;;;;;;;;;2.00;2.00;;;;;25.89;36.89;101096.63;5093361;27;46333;-78
2022/12/21 09:35:10;;;;;;;;;2.00;2.00;;;;;25.92;37.55;101101.72;5089473;27;45348;-74
2022/12/21 09:37:35;;;;;;;;;2.00;1.33;;;;;25.99;37.50;101093.69;5111451;27;45425;-76
2022/12/21 09:40:01;;;;;;;;;2.00;2.00;;;;;25.98;36.39;101081.09;5098442;27;45520;-76
2022/12/21 09:42:38;;;;;;;;;2.33;2.33;;;;;26.03;36.46;101092.28;5095353;27;45307;-76
2022/12/21 09:45:45;;;;;;;;;1.67;1.67;;;;;25.98;35.72;101103.72;5096761;27;45373;-77
2022/12/21 09:48:21;;;;;;;;;3.33;2.67;;;;;25.94;35.75;101101.53;5095820;27;45509;-76
2022/12/21 09:51:02;;;;;;;;;1.00;1.00;;;;;25.94;35.81;101115.13;5105455;27;45431;-76
2022/12/21 09:53:35;;;;;;;;;2.00;1.33;;;;;25.91;35.85;101114.44;5111917;27;45556;-74
2022/12/21 09:56:01;;;;;;;;;1.67;1.67;;;;;25.88;36.13;101131.09;5090632;27;45339;-74
2022/12/21 09:58:44;;;;;;;;;1.33;1.33;;;;;25.85;35.72;101120.59;5087043;27;45508;-74
2022/12/21 10:01:19;;;;;;;;;1.33;1.33;;;;;25.89;35.85;101137.41;5084925;27;45482;-73
2022/12/21 10:03:52;;;;;;;;;2.00;2.00;;;;;25.98;35.76;101139.06;5083082;27;45471;-76
2022/12/21 10:06:30;;;;;;;;;3.00;2.00;;;;;26.08;35.98;101148.91;5087217;27;45524;-72
2022/12/21 10:09:18;;;;;;;;;4.00;1.33;;;;;26.17;36.21;101145.13;5090224;27;46057;-73
2022/12/21 10:12:01;;;;;;;;;2.00;2.00;;;;;26.26;36.23;101145.94;5083477;27;45773;-72
2022/12/21 10:14:29;;;;;;;;;3.00;2.00;;;;;26.38;35.85;101141.81;5083153;27;46150;-71
2022/12/21 10:17:21;;;;;;;;;1.00;1.00;;;;;26.46;35.71;101151.81;5086474;27;45402;-74
2022/12/21 10:20:22;;;;;;;;;1.00;1.00;;;;;26.55;35.79;101152.59;5076081;27;46221;-73
2022/12/21 10:22:50;;;;;;;;;2.00;2.00;;;;;26.63;35.85;101141.66;5086421;27;45671;-74
2022/12/21 10:25:20;;;;;;;;;2.00;2.00;;;;;26.69;36.14;101135.50;5079526;27;48548;-73
2022/12/21 10:27:51;;;;;;;;;2.00;2.00;;;;;26.75;35.75;101111.28;5087561;27;45445;-73
2022/12/21 10:30:18;;;;;;;;;1.00;1.00;;;;;26.83;35.58;101103.06;5084657;27;45850;-73
2022/12/21 10:32:48;;;;;;;;;1.00;1.00;;;;;26.87;35.41;101096.22;5092003;27;45673;-72
2022/12/21 10:35:17;;;;;;;;;1.00;1.00;;;;;26.92;36.12;101099.25;5086887;27;45489;-72
2022/12/21 10:37:46;;;;;;;;;1.00;1.00;;;;;26.91;35.58;101097.56;5085514;27;45449;-74
2022/12/21 10:40:12;;;;;;;;;1.00;1.00;;;;;26.93;35.69;101090.06;5088877;27;45438;-74
2022/12/21 10:42:44;;;;;;;;;1.00;1.00;;;;;26.94;34.99;101097.22;5083796;27;45533;-74
2022/12/21 10:45:14;;;;;;;;;2.00;2.00;;;;;26.89;35.53;101072.38;5086179;27;45616;-75
2022/12/21 10:47:44;;;;;;;;;3.00;1.33;;;;;26.92;35.55;101072.03;5085381;27;45528;-72
2022/12/21 10:50:32;;;;;;;;;1.00;1.00;;;;;26.92;34.86;101072.03;5104283;27;45419;-71
2022/12/21 10:53:00;;;;;;;;;2.33;1.00;;;;;26.89;34.90;101071.56;5088057;27;45615;-74
2022/12/21 10:55:36;;;;;;;;;2.00;2.00;;;;;26.82;34.77;101072.25;5087729;27;46205;-75
2022/12/21 10:58:02;;;;;;;;;2.33;1.00;;;;;26.80;34.92;101078.91;5085541;27;45476;-73
2022/12/21 11:00:30;;;;;;;;;1.67;1.67;;;;;26.75;35.08;101065.00;5086886;27;45477;-74
2022/12/21 11:02:59;;;;;;;;;0.67;0.67;;;;;26.76;34.97;101064.81;5084707;27;45850;-74
2022/12/21 11:05:38;;;;;;;;;0.67;0.67;;;;;26.79;34.93;101063.63;5083977;27;45817;-74
2022/12/21 11:08:28;;;;;;;;;1.00;1.00;;;;;26.87;35.20;101057.25;5086265;27;45572;-76
2022/12/21 11:11:00;;;;;;;;;1.00;1.00;;;;;26.88;35.27;101039.88;5081690;27;46307;-75
2022/12/21 11:13:29;;;;;;;;;1.00;1.00;;;;;27.01;34.90;101045.56;5082005;27;45945;-76
2022/12/21 11:15:59;;;;;;;;;1.00;1.00;;;;;27.08;35.09;101045.69;5078156;27;45627;-77
2022/12/21 11:18:36;;;;;;;;;2.33;2.33;;;;;27.13;34.87;101023.34;5088715;27;47017;-75
2022/12/21 11:21:04;;;;;;;;;2.00;1.00;;;;;27.13;34.31;101026.06;5085704;27;45451;-74
2022/12/21 11:23:30;;;;;;;;;1.33;1.00;;;;;27.18;34.37;101021.72;5088486;27;45451;-74
2022/12/21 11:25:56;;;;;;;;;2.67;1.33;;;;;27.20;34.84;101016.97;5084323;27;45617;-74
2022/12/21 11:28:23;;;;;;;;;0.00;0.00;;;;;27.23;34.57;101018.47;5087872;27;45496;-74
2022/12/21 11:30:57;;;;;;;;;1.00;1.00;;;;;27.22;34.82;101012.16;5084072;27;45464;-74
2022/12/21 11:33:23;;;;;;;;;1.00;1.00;;;;;27.23;34.24;100999.41;5085289;27;45548;-73
2022/12/21 11:36:14;;;;;;;;;1.00;1.00;;;;;27.29;34.61;101009.53;5086093;27;46891;-72
2022/12/21 11:38:41;;;;;;;;;2.67;2.67;;;;;27.29;34.53;100997.78;5087584;27;47209;-74
2022/12/21 11:41:26;;;;;;;;;1.00;1.00;;;;;27.37;34.71;100997.69;5084866;27;45937;-73
2022/12/21 11:43:53;;;;;;;;;1.00;1.00;;;;;27.42;34.73;100995.25;5085320;27;46023;-73
2022/12/21 11:46:46;;;;;;;;;1.00;1.00;;;;;27.44;34.33;100992.34;5091401;27;45440;-73
2022/12/21 11:49:31;;;;;;;;;0.33;0.33;;;;;27.47;33.91;100986.50;5083075;27;45966;-72
2022/12/21 11:52:08;;;;;;;;;1.00;1.00;;;;;27.44;33.89;100982.28;5087176;27;46014;-72
2022/12/21 11:54:46;;;;;;;;;1.00;1.00;;;;;27.47;33.89;100978.34;5087964;27;45510;-73
2022/12/21 11:58:03;;;;;;;;;1.67;1.33;;;;;27.47;34.14;100981.06;5092985;27;47540;-72
2022/12/21 12:00:40;;;;;;;;;2.00;1.00;;;;;27.37;33.65;100975.88;5031037;28;45492;-74
2022/12/21 12:03:40;;;;;;;;;2.00;2.00;;;;;27.30;32.93;100974.97;5038082;28;45422;-74
2022/12/21 12:06:33;;;;;;;;;3.00;1.00;;;;;27.21;33.72;100977.78;5042488;28;45491;-80
2022/12/21 12:09:12;;;;;;;;;1.00;1.00;;;;;27.16;33.25;100965.75;5044160;28;46473;-81
2022/12/21 12:12:26;;;;;;;;;3.33;1.33;;;;;27.12;33.89;100972.59;5047763;28;45592;-82
2022/12/21 12:15:08;;;;;;;;;2.33;1.67;;;;;27.10;33.44;100953.75;4984660;28;45517;-73
2022/12/21 12:17:43;;;;;;;;;3.67;1.00;;;;;27.14;34.31;100949.56;4981425;28;45556;-73
2022/12/21 12:20:23;;;;;;;;;2.00;1.00;;;;;27.14;33.50;100944.13;4985627;28;45525;-74
2022/12/21 12:23:39;;;;;;;;;2.67;1.00;;;;;27.15;33.61;100945.00;4989651;28;45363;-73
2022/12/21 12:26:14;;;;;;;;;0.67;0.00;;;;;27.15;33.54;100945.84;4951470;28;45581;-73
2022/12/21 12:28:52;;;;;;;;;0.67;0.67;;;;;27.16;33.38;100944.81;4950943;28;45908;-75
2022/12/21 12:31:20;;;;;;;;;1.00;1.00;;;;;27.16;33.94;100942.09;4953695;28;47352;-74
2022/12/21 12:34:24;;;;;;;;;0.00;0.00;;;;;27.14;33.50;100940.59;4951572;28;47368;-74
2022/12/21 12:37:27;;;;;;;;;2.00;2.00;;;;;27.13;33.40;100928.81;4984885;28;45500;-74
2022/12/21 12:40:11;;;;;;;;;1.00;1.00;;;;;27.12;33.83;100921.69;4994220;28;45580;-74
2022/12/21 12:43:03;;;;;;;;;1.33;1.00;;;;;27.14;33.42;100924.25;4990563;28;45995;-74
2022/12/21 12:45:43;;;;;;;;;1.33;1.33;;;;;27.13;33.26;100919.81;5004893;28;46145;-76
2022/12/21 12:48:40;;;;;;;;;1.00;1.00;;;;;27.10;33.65;100908.25;5029843;28;45475;-75
2022/12/21 12:51:15;;;;;;;;;0.00;0.00;;;;;27.08;33.23;100896.72;5024482;28;45581;-78
2022/12/21 12:54:17;;;;;;;;;2.33;2.00;;;;;27.06;33.79;100893.31;5027806;28;46311;-78
2022/12/21 12:57:00;;;;;;;;;1.67;1.67;;;;;27.05;33.75;100890.81;5026271;28;45574;-80
2022/12/21 12:59:37;;;;;;;;;1.00;1.00;;;;;27.04;34.15;100884.50;5026914;28;45926;-80
2022/12/21 13:02:24;;;;;;;;;1.00;1.00;;;;;27.05;34.02;100886.19;5024761;28;47132;-77
2022/12/21 13:05:01;;;;;;;;;1.00;1.00;;;;;27.05;33.60;100882.63;5024416;28;45436;-78
2022/12/21 13:08:00;;;;;;;;;1.00;1.00;;;;;27.05;33.36;100874.47;5007795;28;45495;-79
2022/12/21 13:10:49;;;;;;;;;0.00;0.00;;;;;27.08;33.96;100874.94;5023206;28;45427;-83
2022/12/21 13:13:28;;;;;;;;;1.67;1.67;;;;;27.09;33.84;100862.13;5007132;28;47072;-77
2022/12/21 13:16:02;;;;;;;;;1.00;1.00;;;;;27.06;33.72;100857.91;5029028;28;45454;-83
2022/12/21 13:18:33;;;;;;;;;1.00;1.00;;;;;27.06;33.70;100849.75;5026020;28;45828;-78
2022/12/21 13:21:00;;;;;;;;;0.00;0.00;;;;;27.09;34.01;100843.91;5027209;28;45558;-81
2022/12/21 13:23:34;;;;;;;;;1.00;0.00;;;;;27.13;33.75;100841.66;5073822;27;45476;-78
2022/12/21 13:26:08;;;;;;;;;0.67;0.67;;;;;27.05;33.85;100815.38;5081332;27;46109;-79
2022/12/21 13:28:53;;;;;;;;;1.00;1.00;;;;;27.18;34.47;100822.84;5087493;27;45556;-79
2022/12/21 13:31:26;;;;;;;;;2.33;1.00;;;;;27.21;34.32;100827.94;5087239;27;45700;-75
2022/12/21 13:33:58;;;;;;;;;1.00;0.00;;;;;27.25;33.72;100817.47;5084095;27;45501;-77
2022/12/21 13:36:26;;;;;;;;;1.00;1.00;;;;;27.28;34.03;100817.09;5084565;27;46474;-81
2022/12/21 13:38:57;;;;;;;;;1.33;1.33;;;;;27.28;34.19;100808.94;5080167;27;45668;-74
2022/12/21 13:41:46;;;;;;;;;2.00;2.00;;;;;27.26;33.28;100802.00;5083686;27;45457;-76
2022/12/21 13:44:23;;;;;;;;;1.00;1.00;;;;;27.25;34.07;100803.03;5083111;27;46966;-77
2022/12/21 13:46:51;;;;;;;;;1.00;1.00;;;;;27.19;33.61;100791.00;5090247;27;46405;-80
2022/12/21 13:49:48;;;;;;;;;1.00;1.00;;;;;27.19;33.47;100793.75;5087681;27;45475;-74
2022/12/21 13:52:33;;;;;;;;;1.00;1.00;;;;;27.18;33.68;100790.16;5082579;27;45584;-77
2022/12/21 13:55:19;;;;;;;;;0.67;0.67;;;;;27.17;33.95;100782.16;5102935;27;45307;-77
2022/12/21 13:58:09;;;;;;;;;2.00;1.00;;;;;27.19;33.58;100777.41;5087351;27;45999;-74
2022/12/21 14:00:40;;;;;;;;;1.00;1.00;;;;;27.12;33.95;100774.59;5086307;27;45806;-75
2022/12/21 14:03:41;;;;;;;;;2.00;0.67;;;;;27.17;34.27;100777.56;5088620;27;45457;-74
2022/12/21 14:06:50;;;;;;;;;2.00;0.33;;;;;27.16;34.20;100773.19;5083198;27;45731;-76
2022/12/21 14:09:22;;;;;;;;;0.00;0.00;;;;;27.12;33.96;100760.13;5112107;27;46201;-77
2022/12/21 14:12:12;;;;;;;;;1.00;0.00;;;;;27.15;33.69;100762.47;5107614;27;46193;-74
2022/12/21 14:14:43;;;;;;;;;0.00;0.00;;;;;27.14;34.10;100752.63;5112993;27;45528;-77
2022/12/21 14:17:18;;;;;;;;;0.67;0.67;;;;;27.09;34.14;100754.03;5087553;27;45607;-75
2022/12/21 14:19:52;;;;;;;;;0.67;0.67;;;;;27.10;33.84;100757.59;5101564;27;46158;-75
2022/12/21 14:22:45;;;;;;;;;1.67;1.00;;;;;27.11;34.51;100756.56;5087374;27;45409;-74
2022/12/21 14:25:21;;;;;;;;;0.00;0.00;;;;;27.10;34.49;100763.06;5091165;27;45402;-76
2022/12/21 14:28:22;;;;;;;;;2.67;1.00;;;;;27.07;34.28;100758.84;5097662;27;45488;-77
2022/12/21 14:31:08;;;;;;;;;0.00;0.00;;;;;27.10;34.40;100752.16;5082945;27;47592;-75
2022/12/21 14:33:42;;;;;;;;;0.33;0.33;;;;;27.06;34.57;100746.22;5094035;27;45621;-77
2022/12/21 14:36:13;;;;;;;;;0.67;0.00;;;;;27.09;34.53;100751.31;5095474;27;45498;-72
2022/12/21 14:38:38;;;;;;;;;4.00;1.00;;;;;27.06;33.87;100745.41;5086817;27;45532;-72
2022/12/21 14:41:09;;;;;;;;;2.00;2.00;;;;;27.05;33.84;100741.81;5097997;27;45374;-72
2022/12/21 14:44:09;;;;;;;;;2.00;0.00;;;;;27.00;34.26;100737.97;5083867;27;45705;-72
2022/12/21 14:46:36;;;;;;;;;1.67;1.67;;;;;26.94;34.08;100745.06;5094257;27;45639;-75
2022/12/21 14:49:08;;;;;;;;;1.00;1.00;;;;;26.89;33.92;100742.03;5097907;27;46360;-76
2022/12/21 14:51:57;;;;;;;;;2.33;0.33;;;;;26.85;33.92;100736.09;5099242;27;46157;-74
2022/12/21 14:54:27;;;;;;;;;1.00;1.00;;;;;26.83;33.78;100727.31;5084389;27;46087;-75
2022/12/21 14:57:12;;;;;;;;;2.33;1.33;;;;;26.81;34.30;100727.50;5095150;27;45553;-76
2022/12/21 14:59:44;;;;;;;;;1.00;0.00;;;;;26.83;33.96;100717.25;5095136;27;45891;-77
2022/12/21 15:02:43;;;;;;;;;1.67;1.00;;;;;26.87;33.92;100708.69;5100117;27;46183;-78
2022/12/21 15:05:36;;;;;;;;;1.00;1.00;;;;;26.88;34.49;100704.94;5101228;27;45578;-76
2022/12/21 15:08:01;;;;;;;;;0.67;0.67;;;;;27.02;34.10;100714.13;5104882;27;45528;-73
2022/12/21 15:10:32;;;;;;;;;1.00;1.00;;;;;27.06;34.49;100713.53;5087833;27;45473;-76
2022/12/21 15:12:58;;;;;;;;;1.33;0.00;;;;;27.16;34.14;100713.25;5084330;27;45471;-72
2022/12/21 15:15:42;;;;;;;;;0.33;0.33;;;;;27.25;34.50;100703.03;5091900;27;45429;-85
2022/12/21 15:18:23;;;;;;;;;1.00;1.00;;;;;27.32;34.50;100701.25;5083592;27;45595;-72
2022/12/21 15:20:51;;;;;;;;;0.00;0.00;;;;;27.37;33.87;100697.91;5088944;27;45450;-75
2022/12/21 15:23:28;;;;;;;;;0.00;0.00;;;;;27.41;33.66;100698.38;5087800;27;46318;-75
2022/12/21 15:26:01;;;;;;;;;0.00;0.00;;;;;27.43;34.22;100688.13;5085520;27;47134;-75
2022/12/21 15:28:34;;;;;;;;;3.00;1.33;;;;;27.50;33.76;100697.19;5084389;27;45472;-75
2022/12/21 15:31:07;;;;;;;;;0.00;0.00;;;;;27.52;34.09;100686.94;5085895;27;45378;-74
2022/12/21 15:33:40;;;;;;;;;3.00;1.00;;;;;27.51;33.45;100690.72;5082684;27;46402;-76
2022/12/21 15:36:14;;;;;;;;;1.00;1.00;;;;;27.54;34.07;100693.03;5085731;27;46070;-73
2022/12/21 15:38:48;;;;;;;;;1.00;1.00;;;;;27.57;33.43;100689.91;5089558;27;45431;-74
2022/12/21 15:41:30;;;;;;;;;1.00;1.00;;;;;27.56;33.62;100685.53;5087226;27;45435;-76
2022/12/21 15:44:02;;;;;;;;;2.00;0.00;;;;;27.60;33.56;100678.66;5082084;27;45546;-74
2022/12/21 15:47:03;;;;;;;;;0.00;0.00;;;;;27.61;33.64;100669.44;5082828;27;45464;-76
2022/12/21 15:49:40;;;;;;;;;0.00;0.00;;;;;27.64;33.95;100664.63;5084741;27;46452;-73
2022/12/21 15:52:34;;;;;;;;;1.00;1.00;;;;;27.69;33.80;100656.69;5080979;27;46485;-74
2022/12/21 15:55:10;;;;;;;;;0.00;0.00;;;;;27.71;34.19;100641.00;5079023;27;47161;-74
2022/12/21 15:57:43;;;;;;;;;0.00;0.00;;;;;27.74;33.69;100648.75;5078321;27;45512;-74
2022/12/21 16:00:16;;;;;;;;;1.00;0.00;;;;;27.74;33.56;100635.97;5084382;27;45700;-74
2022/12/21 16:02:44;;;;;;;;;0.67;0.67;;;;;27.76;33.34;100641.22;5081958;27;47057;-76
2022/12/21 16:05:16;;;;;;;;;1.00;1.00;;;;;27.76;33.56;100638.50;5083491;27;46612;-73
2022/12/21 16:07:47;;;;;;;;;1.67;1.00;;;;;27.71;33.94;100630.91;5085978;27;45449;-74
2022/12/21 16:10:26;;;;;;;;;1.00;1.00;;;;;27.74;33.39;100630.50;5090675;27;45514;-72
2022/12/21 16:13:02;;;;;;;;;0.00;0.00;;;;;27.72;33.55;100629.84;5087464;27;45489;-75
2022/12/21 16:15:36;;;;;;;;;1.00;1.00;;;;;27.77;33.33;100647.50;5081541;27;45535;-72
2022/12/21 16:18:10;;;;;;;;;1.00;1.00;;;;;27.77;33.20;100650.22;5087824;27;45725;-73
2022/12/21 16:20:58;;;;;;;;;1.00;1.00;;;;;27.78;33.62;100660.13;5083261;27;45469;-73
2022/12/21 16:23:45;;;;;;;;;0.00;0.00;;;;;27.74;33.32;100646.03;5090176;27;45601;-72
2022/12/21 16:26:23;;;;;;;;;0.33;0.33;;;;;27.74;33.42;100643.28;5086653;27;45714;-74
2022/12/21 16:28:53;;;;;;;;;0.67;0.67;;;;;27.72;33.66;100635.31;5088579;27;45327;-75
2022/12/21 16:31:27;;;;;;;;;1.00;0.00;;;;;27.74;33.33;100640.56;5086884;27;45533;-74
2022/12/21 16:33:55;;;;;;;;;3.33;0.67;;;;;27.76;33.29;100627.59;5087445;27;45431;-75
2022/12/21 16:36:23;;;;;;;;;1.00;1.00;;;;;27.79;33.25;100623.63;5093692;27;45519;-75
2022/12/21 16:38:49;;;;;;;;;0.33;0.33;;;;;27.80;32.50;100622.56;5092519;27;45402;-74
2022/12/21 16:41:16;;;;;;;;;1.00;1.00;;;;;27.76;32.96;100611.22;5081111;27;45311;-73
2022/12/21 16:43:47;;;;;;;;;0.00;0.00;;;;;27.70;32.35;100601.97;5086694;27;45604;-75
2022/12/21 16:46:12;;;;;;;;;1.00;1.00;;;;;27.61;32.74;100598.56;5084707;27;46169;-76
2022/12/21 16:48:41;;;;;;;;;0.67;0.67;;;;;27.55;32.45;100601.22;5091255;27;45414;-76
2022/12/21 16:51:07;;;;;;;;;2.00;0.00;;;;;27.46;32.46;100600.53;5092259;27;45567;-76
2022/12/21 16:53:35;;;;;;;;;1.00;1.00;;;;;27.37;32.07;100605.25;5083837;27;45346;-75
2022/12/21 16:56:15;;;;;;;;;0.33;0.33;;;;;27.31;32.64;100593.28;5091311;27;45521;-74
2022/12/21 16:58:52;;;;;;;;;0.00;0.00;;;;;27.23;32.04;100591.53;5090788;27;45425;-74
2022/12/21 17:01:38;;;;;;;;;0.67;0.00;;;;;27.18;32.16;100580.38;5091263;27;45752;-75
2022/12/21 17:04:13;;;;;;;;;0.67;0.00;;;;;27.16;32.66;100579.75;5078909;27;45487;-73
2022/12/21 17:06:59;;;;;;;;;0.00;0.00;;;;;27.12;33.17;100578.47;5093335;27;46766;-76
2022/12/21 17:09:29;;;;;;;;;1.67;1.00;;;;;27.16;33.04;100595.25;5089320;27;45717;-73
2022/12/21 17:11:59;;;;;;;;;2.00;2.00;;;;;27.16;33.32;100582.47;5093666;27;45409;-75
2022/12/21 17:14:25;;;;;;;;;0.33;0.33;;;;;27.25;33.09;100585.06;5095818;27;45434;-74
2022/12/21 17:17:16;;;;;;;;;0.00;0.00;;;;;27.32;32.86;100585.94;5096852;27;45540;-74
2022/12/21 17:20:08;;;;;;;;;1.00;1.00;;;;;27.39;33.44;100575.94;5096648;27;45624;-77
2022/12/21 17:22:34;;;;;;;;;2.33;1.00;;;;;27.44;33.40;100576.19;5079874;27;45771;-76
2022/12/21 17:25:18;;;;;;;;;0.33;0.33;;;;;27.48;33.41;100565.72;5097381;27;45303;-77
2022/12/21 17:27:46;;;;;;;;;0.00;0.00;;;;;27.59;32.97;100572.50;5096034;27;47505;-77
2022/12/21 17:30:12;;;;;;;;;1.00;1.00;;;;;27.60;32.69;100572.34;5097075;27;45362;-75
2022/12/21 17:32:37;;;;;;;;;1.00;1.00;;;;;27.65;33.27;100576.34;5096465;27;45396;-74
2022/12/21 17:35:03;;;;;;;;;1.00;0.00;;;;;27.63;33.54;100562.94;5097095;27;45467;-74
2022/12/21 17:37:28;;;;;;;;;1.67;0.67;;;;;27.69;32.97;100566.72;5095767;27;45627;-80
2022/12/21 17:39:54;;;;;;;;;0.00;0.00;;;;;27.66;33.66;100559.78;5096240;27;45644;-76
2022/12/21 17:42:20;;;;;;;;;0.00;0.00;;;;;27.73;33.48;100568.84;5086450;27;45599;-74
2022/12/21 17:44:45;;;;;;;;;1.00;1.00;;;;;27.73;33.52;100568.00;5094944;27;45524;-75
2022/12/21 17:47:21;;;;;;;;;2.33;0.33;;;;;27.75;33.25;100579.56;5099447;27;46216;-76
2022/12/21 17:49:46;;;;;;;;;0.00;0.00;;;;;27.76;33.65;100578.50;5087931;27;45797;-75
2022/12/21 17:52:12;;;;;;;;;1.00;1.00;;;;;27.74;33.17;100569.69;5097580;27;45854;-77
2022/12/21 17:54:37;;;;;;;;;2.00;1.00;;;;;27.75;33.44;100566.75;5090415;27;45553;-72
2022/12/21 17:57:12;;;;;;;;;2.00;0.00;;;;;27.71;32.98;100560.00;5095163;27;50595;-73
2022/12/21 17:59:38;;;;;;;;;0.33;0.33;;;;;27.64;32.16;100555.56;5099253;27;45496;-73
2022/12/21 18:02:15;;;;;;;;;1.00;1.00;;;;;27.57;32.14;100559.06;5106814;27;50785;-72
2022/12/21 18:04:41;;;;;;;;;1.00;1.00;;;;;27.49;32.71;100562.81;5104515;27;45717;-72
2022/12/21 18:07:15;;;;;;;;;2.00;1.00;;;;;27.46;32.07;100560.47;5106556;27;45507;-72
2022/12/21 18:09:40;;;;;;;;;1.33;1.00;;;;;27.40;32.20;100560.44;5107817;27;45530;-72
2022/12/21 18:12:13;;;;;;;;;1.00;1.00;;;;;27.29;32.12;100540.88;5077953;27;45450;-72
2022/12/21 18:14:39;;;;;;;;;1.00;1.00;;;;;27.24;32.85;100548.78;5086176;27;45697;-72
2022/12/21 18:17:05;;;;;;;;;1.00;1.00;;;;;27.18;32.79;100553.16;5077470;27;46431;-72
2022/12/21 18:19:31;;;;;;;;;0.67;0.67;;;;;27.06;32.08;100535.69;5094704;27;45343;-72
2022/12/21 18:21:56;;;;;;;;;2.00;1.00;;;;;27.03;32.28;100526.03;5095606;27;45325;-72
2022/12/21 18:24:22;;;;;;;;;1.33;1.33;;;;;26.98;32.26;100533.94;5095156;27;45612;-72
2022/12/21 18:26:48;;;;;;;;;1.00;1.00;;;;;26.94;32.34;100532.66;5093819;27;46209;-73
2022/12/21 18:29:15;;;;;;;;;2.00;2.00;;;;;26.89;32.76;100538.63;5088367;27;46162;-73
2022/12/21 18:31:42;;;;;;;;;4.00;3.00;;;;;26.87;32.17;100528.97;5103773;27;45630;-74
2022/12/21 18:34:10;;;;;;;;;3.00;3.00;;;;;26.85;32.94;100537.34;5101909;27;46173;-73
2022/12/21 18:36:36;;;;;;;;;8.00;6.00;;;;;26.81;32.28;100530.63;5084349;27;45429;-74
2022/12/21 18:39:04;;;;;;;;;5.33;5.33;;;;;26.80;32.81;100537.94;5089651;27;45338;-74
2022/12/21 18:41:30;;;;;;;;;5.33;5.00;;;;;26.70;32.60;100523.81;5078596;27;45436;-74
2022/12/21 18:43:55;;;;;;;;;5.67;3.67;;;;;26.70;32.86;100527.38;5085303;27;46155;-74
2022/12/21 18:46:31;;;;;;;;;5.67;4.00;;;;;26.69;32.30;100546.66;5100658;27;45528;-74
2022/12/21 18:49:02;;;;;;;;;6.00;4.00;;;;;26.65;32.51;100524.38;5093382;27;45543;-74
2022/12/21 18:51:34;;;;;;;;;6.00;4.33;;;;;26.61;32.80;100525.00;5095179;27;45583;-74
2022/12/21 18:54:02;;;;;;;;;5.00;4.33;;;;;26.55;32.41;100518.44;5093691;27;45916;-74
2022/12/21 18:56:30;;;;;;;;;6.67;4.00;;;;;26.55;32.61;100519.28;5089715;27;46363;-74
2022/12/21 18:58:55;;;;;;;;;5.00;3.67;;;;;26.53;32.72;100509.63;5090560;27;45437;-74
2022/12/21 19:01:24;;;;;;;;;3.67;3.33;;;;;26.51;32.94;100504.38;5102069;27;45339;-74
2022/12/21 19:03:52;;;;;;;;;3.67;3.67;;;;;26.49;32.38;100501.03;5075830;27;45599;-75
2022/12/21 19:06:22;;;;;;;;;4.00;3.00;;;;;26.52;32.66;100505.25;5091420;27;45516;-74
2022/12/21 19:08:50;;;;;;;;;5.00;4.33;;;;;26.51;32.94;100517.13;5089388;27;46992;-74
2022/12/21 19:11:18;;;;;;;;;4.67;4.67;;;;;26.50;32.58;100518.19;5085749;27;45434;-74
2022/12/21 19:13:44;;;;;;;;;5.00;4.00;;;;;26.48;32.45;100512.94;5088301;27;45811;-75
2022/12/21 19:16:21;;;;;;;;;4.00;4.00;;;;;26.44;32.95;100515.19;5091221;27;45560;-73
2022/12/21 19:18:47;;;;;;;;;3.00;3.00;;;;;26.39;32.94;100503.19;5087337;27;45401;-74
2022/12/21 19:21:34;;;;;;;;;4.33;3.33;;;;;26.34;33.30;100475.75;5081242;27;45493;-74
2022/12/21 19:24:15;;;;;;;;;3.00;3.00;;;;;26.34;33.04;100476.59;5082914;27;45456;-74
2022/12/21 19:26:40;;;;;;;;;3.33;3.33;;;;;26.30;32.97;100478.00;5088768;27;46220;-73
2022/12/21 19:29:18;;;;;;;;;1.67;1.33;;;;;26.27;32.97;100457.47;5095533;27;45797;-74
2022/12/21 19:31:44;;;;;;;;;2.00;2.00;;;;;26.26;33.06;100457.66;5091493;27;45619;-74
2022/12/21 19:34:10;;;;;;;;;4.67;2.67;;;;;26.25;33.48;100456.84;5093014;27;45335;-73
2022/12/21 19:36:38;;;;;;;;;3.00;3.00;;;;;26.22;33.63;100468.06;5087160;27;45552;-73
2022/12/21 19:39:05;;;;;;;;;3.00;3.00;;;;;26.18;33.59;100472.22;5090956;27;45413;-72
2022/12/21 19:41:31;;;;;;;;;4.00;2.00;;;;;26.18;33.41;100453.16;5102930;27;45467;-73